sensor_id;sensor_type;location;lat;lon;timestamp;P1;durP1;ratioP1;P2;durP2;ratioP2
20090;SDS011;10205;49.678;6.560;2022-10-22T00:01:38;5.53;;;3.72;;
20090;SDS011;10205;49.678;6.560;2022-10-22T00:04:07;5.25;;;3.80;;
20090;SDS011;10205;49.678;6.560;2022-10-22T00:06:34;10.57;;;4.28;;
20090;SDS011;10205;49.678;6.560;2022-10-22T00:09:02;8.50;;;4.32;;
20090;SDS011;10205;49.678;6.560;2022-10-22T00:11:30;6.57;;;3.90;;
20090;SDS011;10205;49.678;6.560;2022-10-22T00:13:58;9.23;;;3.80;;
20090;SDS011;10205;49.678;6.560;2022-10-22T00:16:25;6.53;;;3.42;;
20090;SDS011;10205;49.678;6.560;2022-10-22T00:18:53;4.93;;;3.47;;
20090;SDS011;10205;49.678;6.560;2022-10-22T00:21:21;4.90;;;3.60;;
20090;SDS011;10205;49.678;6.560;2022-10-22T00:23:49;4.80;;;3.80;;
20090;SDS011;10205;49.678;6.560;2022-10-22T00:26:17;8.35;;;3.92;;
20090;SDS011;10205;49.678;6.560;2022-10-22T00:28:45;5.70;;;3.80;;
20090;SDS011;10205;49.678;6.560;2022-10-22T00:31:12;8.23;;;3.72;;
20090;SDS011;10205;49.678;6.560;2022-10-22T00:33:39;5.85;;;3.70;;
20090;SDS011;10205;49.678;6.560;2022-10-22T00:36:07;7.28;;;4.00;;
20090;SDS011;10205;49.678;6.560;2022-10-22T00:38:38;5.65;;;3.42;;
20090;SDS011;10205;49.678;6.560;2022-10-22T00:41:06;7.53;;;3.70;;
20090;SDS011;10205;49.678;6.560;2022-10-22T00:46:21;8.02;;;3.80;;
20090;SDS011;10205;49.678;6.560;2022-10-22T00:48:48;3.92;;;3.15;;
20090;SDS011;10205;49.678;6.560;2022-10-22T00:51:16;5.68;;;3.28;;
20090;SDS011;10205;49.678;6.560;2022-10-22T00:53:49;6.00;;;3.42;;
20090;SDS011;10205;49.678;6.560;2022-10-22T00:56:20;4.53;;;3.05;;
20090;SDS011;10205;49.678;6.560;2022-10-22T00:58:49;5.05;;;2.58;;
20090;SDS011;10205;49.678;6.560;2022-10-22T01:01:21;3.83;;;2.70;;
20090;SDS011;10205;49.678;6.560;2022-10-22T01:03:52;5.75;;;2.80;;
20090;SDS011;10205;49.678;6.560;2022-10-22T01:06:21;5.55;;;2.60;;
20090;SDS011;10205;49.678;6.560;2022-10-22T01:08:56;6.03;;;3.10;;
20090;SDS011;10205;49.678;6.560;2022-10-22T01:11:41;3.85;;;2.50;;
20090;SDS011;10205;49.678;6.560;2022-10-22T01:14:24;4.88;;;2.25;;
20090;SDS011;10205;49.678;6.560;2022-10-22T01:17:03;5.18;;;2.83;;
20090;SDS011;10205;49.678;6.560;2022-10-22T01:19:40;4.53;;;2.30;;
20090;SDS011;10205;49.678;6.560;2022-10-22T01:22:26;3.67;;;2.85;;
20090;SDS011;10205;49.678;6.560;2022-10-22T01:25:02;2.95;;;2.20;;
20090;SDS011;10205;49.678;6.560;2022-10-22T01:27:42;5.57;;;2.15;;
20090;SDS011;10205;49.678;6.560;2022-10-22T01:30:22;4.82;;;2.50;;
20090;SDS011;10205;49.678;6.560;2022-10-22T01:32:53;4.53;;;2.58;;
20090;SDS011;10205;49.678;6.560;2022-10-22T01:35:27;6.50;;;2.75;;
20090;SDS011;10205;49.678;6.560;2022-10-22T01:38:00;3.17;;;2.30;;
20090;SDS011;10205;49.678;6.560;2022-10-22T01:40:32;4.22;;;2.30;;
20090;SDS011;10205;49.678;6.560;2022-10-22T01:43:01;4.55;;;2.67;;
20090;SDS011;10205;49.678;6.560;2022-10-22T01:45:33;2.65;;;2.10;;
20090;SDS011;10205;49.678;6.560;2022-10-22T01:48:06;4.15;;;2.58;;
20090;SDS011;10205;49.678;6.560;2022-10-22T01:51:00;3.95;;;2.50;;
20090;SDS011;10205;49.678;6.560;2022-10-22T01:53:44;7.05;;;2.63;;
20090;SDS011;10205;49.678;6.560;2022-10-22T01:56:24;3.95;;;2.25;;
20090;SDS011;10205;49.678;6.560;2022-10-22T01:59:11;4.38;;;2.38;;
20090;SDS011;10205;49.678;6.560;2022-10-22T02:01:51;4.70;;;2.30;;
20090;SDS011;10205;49.678;6.560;2022-10-22T02:04:25;3.08;;;1.85;;
20090;SDS011;10205;49.678;6.560;2022-10-22T02:06:59;2.67;;;2.10;;
20090;SDS011;10205;49.678;6.560;2022-10-22T02:09:31;4.28;;;2.03;;
20090;SDS011;10205;49.678;6.560;2022-10-22T02:12:01;3.67;;;2.22;;
20090;SDS011;10205;49.678;6.560;2022-10-22T02:14:32;6.35;;;1.77;;
20090;SDS011;10205;49.678;6.560;2022-10-22T02:17:06;3.75;;;1.95;;
20090;SDS011;10205;49.678;6.560;2022-10-22T02:19:38;3.30;;;1.98;;
20090;SDS011;10205;49.678;6.560;2022-10-22T02:22:13;4.13;;;1.90;;
20090;SDS011;10205;49.678;6.560;2022-10-22T02:24:42;3.75;;;1.85;;
20090;SDS011;10205;49.678;6.560;2022-10-22T02:27:11;4.35;;;1.98;;
20090;SDS011;10205;49.678;6.560;2022-10-22T02:29:49;2.90;;;1.90;;
20090;SDS011;10205;49.678;6.560;2022-10-22T02:32:27;2.40;;;1.77;;
20090;SDS011;10205;49.678;6.560;2022-10-22T02:35:02;6.07;;;1.83;;
20090;SDS011;10205;49.678;6.560;2022-10-22T02:37:33;2.55;;;1.70;;
20090;SDS011;10205;49.678;6.560;2022-10-22T02:40:01;3.22;;;1.50;;
20090;SDS011;10205;49.678;6.560;2022-10-22T02:42:29;5.32;;;2.00;;
20090;SDS011;10205;49.678;6.560;2022-10-22T02:44:57;2.53;;;1.90;;
20090;SDS011;10205;49.678;6.560;2022-10-22T02:47:26;3.83;;;2.20;;
20090;SDS011;10205;49.678;6.560;2022-10-22T02:49:53;2.35;;;1.98;;
20090;SDS011;10205;49.678;6.560;2022-10-22T02:52:20;2.90;;;1.95;;
20090;SDS011;10205;49.678;6.560;2022-10-22T02:54:47;2.47;;;1.60;;
20090;SDS011;10205;49.678;6.560;2022-10-22T02:57:14;2.17;;;1.40;;
20090;SDS011;10205;49.678;6.560;2022-10-22T02:59:42;4.97;;;1.77;;
20090;SDS011;10205;49.678;6.560;2022-10-22T03:02:09;2.15;;;1.90;;
20090;SDS011;10205;49.678;6.560;2022-10-22T03:04:38;2.42;;;1.52;;
20090;SDS011;10205;49.678;6.560;2022-10-22T03:07:05;4.72;;;1.35;;
20090;SDS011;10205;49.678;6.560;2022-10-22T03:09:33;2.83;;;1.50;;
20090;SDS011;10205;49.678;6.560;2022-10-22T03:12:00;5.20;;;1.55;;
20090;SDS011;10205;49.678;6.560;2022-10-22T03:14:27;3.45;;;1.52;;
20090;SDS011;10205;49.678;6.560;2022-10-22T03:16:54;2.30;;;1.55;;
20090;SDS011;10205;49.678;6.560;2022-10-22T03:19:22;7.15;;;1.80;;
20090;SDS011;10205;49.678;6.560;2022-10-22T03:21:51;3.45;;;1.60;;
20090;SDS011;10205;49.678;6.560;2022-10-22T03:24:24;2.92;;;1.70;;
20090;SDS011;10205;49.678;6.560;2022-10-22T03:26:56;1.92;;;1.42;;
20090;SDS011;10205;49.678;6.560;2022-10-22T03:29:24;3.28;;;1.40;;
20090;SDS011;10205;49.678;6.560;2022-10-22T03:31:53;5.28;;;1.60;;
20090;SDS011;10205;49.678;6.560;2022-10-22T03:34:21;2.38;;;1.40;;
20090;SDS011;10205;49.678;6.560;2022-10-22T03:36:48;2.03;;;1.38;;
20090;SDS011;10205;49.678;6.560;2022-10-22T03:39:18;2.97;;;1.30;;
20090;SDS011;10205;49.678;6.560;2022-10-22T03:41:47;3.40;;;1.40;;
20090;SDS011;10205;49.678;6.560;2022-10-22T03:44:15;3.95;;;1.55;;
20090;SDS011;10205;49.678;6.560;2022-10-22T03:46:43;3.25;;;1.33;;
20090;SDS011;10205;49.678;6.560;2022-10-22T03:49:11;2.92;;;1.55;;
20090;SDS011;10205;49.678;6.560;2022-10-22T03:51:38;2.92;;;1.10;;
20090;SDS011;10205;49.678;6.560;2022-10-22T03:54:07;1.73;;;1.35;;
20090;SDS011;10205;49.678;6.560;2022-10-22T03:56:34;5.07;;;1.52;;
20090;SDS011;10205;49.678;6.560;2022-10-22T03:59:02;3.33;;;1.65;;
20090;SDS011;10205;49.678;6.560;2022-10-22T04:01:30;1.77;;;1.20;;
20090;SDS011;10205;49.678;6.560;2022-10-22T04:03:57;3.42;;;1.20;;
20090;SDS011;10205;49.678;6.560;2022-10-22T04:06:24;2.67;;;1.58;;
20090;SDS011;10205;49.678;6.560;2022-10-22T04:08:52;1.42;;;1.10;;
20090;SDS011;10205;49.678;6.560;2022-10-22T04:11:20;4.45;;;1.60;;
20090;SDS011;10205;49.678;6.560;2022-10-22T04:13:48;4.75;;;1.77;;
20090;SDS011;10205;49.678;6.560;2022-10-22T04:16:16;3.55;;;1.35;;
20090;SDS011;10205;49.678;6.560;2022-10-22T04:18:46;2.97;;;1.67;;
20090;SDS011;10205;49.678;6.560;2022-10-22T04:21:17;1.92;;;1.20;;
20090;SDS011;10205;49.678;6.560;2022-10-22T04:23:45;2.10;;;1.25;;
20090;SDS011;10205;49.678;6.560;2022-10-22T04:26:15;5.82;;;1.45;;
20090;SDS011;10205;49.678;6.560;2022-10-22T04:28:46;1.40;;;1.30;;
20090;SDS011;10205;49.678;6.560;2022-10-22T04:31:16;2.35;;;1.40;;
20090;SDS011;10205;49.678;6.560;2022-10-22T04:33:46;2.65;;;1.30;;
20090;SDS011;10205;49.678;6.560;2022-10-22T04:36:18;2.17;;;1.33;;
20090;SDS011;10205;49.678;6.560;2022-10-22T04:38:46;1.77;;;1.20;;
20090;SDS011;10205;49.678;6.560;2022-10-22T04:41:19;1.83;;;1.30;;
20090;SDS011;10205;49.678;6.560;2022-10-22T04:43:51;1.63;;;1.20;;
20090;SDS011;10205;49.678;6.560;2022-10-22T04:46:21;2.42;;;1.55;;
20090;SDS011;10205;49.678;6.560;2022-10-22T04:48:51;2.42;;;1.30;;
20090;SDS011;10205;49.678;6.560;2022-10-22T04:51:19;2.58;;;1.30;;
20090;SDS011;10205;49.678;6.560;2022-10-22T04:53:49;5.32;;;1.70;;
20090;SDS011;10205;49.678;6.560;2022-10-22T04:56:18;4.90;;;1.73;;
20090;SDS011;10205;49.678;6.560;2022-10-22T04:58:49;2.83;;;1.23;;
20090;SDS011;10205;49.678;6.560;2022-10-22T05:01:21;2.95;;;1.08;;
20090;SDS011;10205;49.678;6.560;2022-10-22T05:03:51;1.20;;;0.90;;
20090;SDS011;10205;49.678;6.560;2022-10-22T05:06:22;2.65;;;1.20;;
20090;SDS011;10205;49.678;6.560;2022-10-22T05:08:52;2.42;;;1.13;;
20090;SDS011;10205;49.678;6.560;2022-10-22T05:11:25;2.17;;;1.05;;
20090;SDS011;10205;49.678;6.560;2022-10-22T05:13:57;1.67;;;0.98;;
20090;SDS011;10205;49.678;6.560;2022-10-22T05:16:27;2.95;;;1.17;;
20090;SDS011;10205;49.678;6.560;2022-10-22T05:18:56;1.63;;;0.93;;
20090;SDS011;10205;49.678;6.560;2022-10-22T05:21:26;3.53;;;1.52;;
20090;SDS011;10205;49.678;6.560;2022-10-22T05:23:53;1.50;;;1.00;;
20090;SDS011;10205;49.678;6.560;2022-10-22T05:26:23;1.88;;;1.20;;
20090;SDS011;10205;49.678;6.560;2022-10-22T05:28:52;3.50;;;1.20;;
20090;SDS011;10205;49.678;6.560;2022-10-22T05:31:21;3.08;;;1.27;;
20090;SDS011;10205;49.678;6.560;2022-10-22T05:33:49;4.60;;;1.27;;
20090;SDS011;10205;49.678;6.560;2022-10-22T05:36:17;5.00;;;1.27;;
20090;SDS011;10205;49.678;6.560;2022-10-22T05:38:50;3.05;;;1.17;;
20090;SDS011;10205;49.678;6.560;2022-10-22T05:41:18;1.48;;;1.20;;
20090;SDS011;10205;49.678;6.560;2022-10-22T05:43:48;4.65;;;1.20;;
20090;SDS011;10205;49.678;6.560;2022-10-22T05:46:17;4.32;;;1.20;;
20090;SDS011;10205;49.678;6.560;2022-10-22T05:48:50;1.77;;;1.27;;
20090;SDS011;10205;49.678;6.560;2022-10-22T05:51:17;3.78;;;1.42;;
20090;SDS011;10205;49.678;6.560;2022-10-22T05:53:49;0.90;;;0.80;;
20090;SDS011;10205;49.678;6.560;2022-10-22T05:56:19;4.25;;;0.98;;
20090;SDS011;10205;49.678;6.560;2022-10-22T05:58:49;1.42;;;1.02;;
20090;SDS011;10205;49.678;6.560;2022-10-22T06:01:17;1.25;;;1.00;;
20090;SDS011;10205;49.678;6.560;2022-10-22T06:03:51;2.65;;;1.10;;
20090;SDS011;10205;49.678;6.560;2022-10-22T06:06:20;1.80;;;1.00;;
20090;SDS011;10205;49.678;6.560;2022-10-22T06:08:54;1.25;;;1.00;;
20090;SDS011;10205;49.678;6.560;2022-10-22T06:11:26;2.80;;;1.20;;
20090;SDS011;10205;49.678;6.560;2022-10-22T06:13:53;4.05;;;1.33;;
20090;SDS011;10205;49.678;6.560;2022-10-22T06:16:22;1.83;;;1.10;;
20090;SDS011;10205;49.678;6.560;2022-10-22T06:18:49;13.38;;;1.40;;
20090;SDS011;10205;49.678;6.560;2022-10-22T06:21:17;2.13;;;1.35;;
20090;SDS011;10205;49.678;6.560;2022-10-22T06:23:46;1.30;;;1.00;;
20090;SDS011;10205;49.678;6.560;2022-10-22T06:26:13;2.03;;;1.10;;
20090;SDS011;10205;49.678;6.560;2022-10-22T06:28:42;2.63;;;1.00;;
20090;SDS011;10205;49.678;6.560;2022-10-22T06:31:09;3.60;;;1.17;;
20090;SDS011;10205;49.678;6.560;2022-10-22T06:33:38;3.38;;;1.17;;
20090;SDS011;10205;49.678;6.560;2022-10-22T06:36:07;1.25;;;0.90;;
20090;SDS011;10205;49.678;6.560;2022-10-22T06:38:37;2.03;;;0.90;;
20090;SDS011;10205;49.678;6.560;2022-10-22T06:41:06;2.08;;;0.90;;
20090;SDS011;10205;49.678;6.560;2022-10-22T06:43:36;1.45;;;1.00;;
20090;SDS011;10205;49.678;6.560;2022-10-22T06:46:05;1.42;;;1.00;;
20090;SDS011;10205;49.678;6.560;2022-10-22T06:48:39;1.27;;;0.90;;
20090;SDS011;10205;49.678;6.560;2022-10-22T06:51:08;1.35;;;0.88;;
20090;SDS011;10205;49.678;6.560;2022-10-22T06:53:37;2.30;;;1.00;;
20090;SDS011;10205;49.678;6.560;2022-10-22T06:56:07;2.67;;;1.00;;
20090;SDS011;10205;49.678;6.560;2022-10-22T06:58:37;2.47;;;1.00;;
20090;SDS011;10205;49.678;6.560;2022-10-22T07:01:05;2.78;;;1.40;;
20090;SDS011;10205;49.678;6.560;2022-10-22T07:03:34;4.50;;;1.00;;
20090;SDS011;10205;49.678;6.560;2022-10-22T07:06:04;1.33;;;1.13;;
20090;SDS011;10205;49.678;6.560;2022-10-22T07:08:35;2.30;;;1.30;;
20090;SDS011;10205;49.678;6.560;2022-10-22T07:11:04;5.65;;;1.52;;
20090;SDS011;10205;49.678;6.560;2022-10-22T07:13:33;2.13;;;1.20;;
20090;SDS011;10205;49.678;6.560;2022-10-22T07:16:00;1.23;;;0.98;;
20090;SDS011;10205;49.678;6.560;2022-10-22T07:18:28;0.98;;;0.90;;
20090;SDS011;10205;49.678;6.560;2022-10-22T07:20:57;3.13;;;1.20;;
20090;SDS011;10205;49.678;6.560;2022-10-22T07:23:26;1.30;;;1.20;;
20090;SDS011;10205;49.678;6.560;2022-10-22T07:25:54;7.05;;;1.20;;
20090;SDS011;10205;49.678;6.560;2022-10-22T07:28:21;2.78;;;1.08;;
20090;SDS011;10205;49.678;6.560;2022-10-22T07:30:48;3.92;;;1.00;;
20090;SDS011;10205;49.678;6.560;2022-10-22T07:33:16;1.88;;;0.90;;
20090;SDS011;10205;49.678;6.560;2022-10-22T07:35:43;1.13;;;0.98;;
20090;SDS011;10205;49.678;6.560;2022-10-22T07:38:10;2.15;;;0.98;;
20090;SDS011;10205;49.678;6.560;2022-10-22T07:40:39;1.98;;;0.88;;
20090;SDS011;10205;49.678;6.560;2022-10-22T07:43:06;1.98;;;1.15;;
20090;SDS011;10205;49.678;6.560;2022-10-22T07:45:33;2.65;;;1.13;;
20090;SDS011;10205;49.678;6.560;2022-10-22T07:48:00;1.00;;;1.00;;
20090;SDS011;10205;49.678;6.560;2022-10-22T07:50:28;3.92;;;0.85;;
20090;SDS011;10205;49.678;6.560;2022-10-22T07:52:55;1.35;;;1.05;;
20090;SDS011;10205;49.678;6.560;2022-10-22T07:55:22;0.98;;;0.80;;
20090;SDS011;10205;49.678;6.560;2022-10-22T07:57:51;2.80;;;0.90;;
20090;SDS011;10205;49.678;6.560;2022-10-22T08:00:18;2.17;;;1.10;;
20090;SDS011;10205;49.678;6.560;2022-10-22T08:02:46;2.88;;;0.95;;
20090;SDS011;10205;49.678;6.560;2022-10-22T08:05:13;4.40;;;1.15;;
20090;SDS011;10205;49.678;6.560;2022-10-22T08:07:41;2.67;;;1.00;;
20090;SDS011;10205;49.678;6.560;2022-10-22T08:10:09;3.03;;;0.90;;
20090;SDS011;10205;49.678;6.560;2022-10-22T08:12:37;3.83;;;1.15;;
20090;SDS011;10205;49.678;6.560;2022-10-22T08:15:10;2.97;;;0.90;;
20090;SDS011;10205;49.678;6.560;2022-10-22T08:17:37;1.50;;;1.05;;
20090;SDS011;10205;49.678;6.560;2022-10-22T08:20:05;5.65;;;1.42;;
20090;SDS011;10205;49.678;6.560;2022-10-22T08:22:34;1.95;;;0.90;;
20090;SDS011;10205;49.678;6.560;2022-10-22T08:25:01;7.32;;;0.93;;
20090;SDS011;10205;49.678;6.560;2022-10-22T08:27:29;1.90;;;0.80;;
20090;SDS011;10205;49.678;6.560;2022-10-22T08:29:56;1.00;;;0.90;;
20090;SDS011;10205;49.678;6.560;2022-10-22T08:32:26;1.73;;;1.02;;
20090;SDS011;10205;49.678;6.560;2022-10-22T08:34:54;1.15;;;0.88;;
20090;SDS011;10205;49.678;6.560;2022-10-22T08:37:22;1.65;;;0.90;;
20090;SDS011;10205;49.678;6.560;2022-10-22T08:39:50;1.40;;;0.90;;
20090;SDS011;10205;49.678;6.560;2022-10-22T08:42:28;3.33;;;0.88;;
20090;SDS011;10205;49.678;6.560;2022-10-22T08:45:25;5.13;;;1.02;;
20090;SDS011;10205;49.678;6.560;2022-10-22T08:48:08;0.82;;;0.80;;
20090;SDS011;10205;49.678;6.560;2022-10-22T08:50:53;0.70;;;0.70;;
20090;SDS011;10205;49.678;6.560;2022-10-22T08:53:24;4.28;;;1.08;;
20090;SDS011;10205;49.678;6.560;2022-10-22T08:56:01;3.08;;;1.10;;
20090;SDS011;10205;49.678;6.560;2022-10-22T08:58:31;4.22;;;0.98;;
20090;SDS011;10205;49.678;6.560;2022-10-22T09:01:09;3.85;;;1.08;;
20090;SDS011;10205;49.678;6.560;2022-10-22T09:03:43;0.80;;;0.80;;
20090;SDS011;10205;49.678;6.560;2022-10-22T09:06:18;1.50;;;0.82;;
20090;SDS011;10205;49.678;6.560;2022-10-22T09:08:49;3.50;;;1.00;;
20090;SDS011;10205;49.678;6.560;2022-10-22T09:11:22;4.72;;;1.10;;
20090;SDS011;10205;49.678;6.560;2022-10-22T09:13:53;1.20;;;0.80;;
20090;SDS011;10205;49.678;6.560;2022-10-22T09:16:24;2.40;;;0.90;;
20090;SDS011;10205;49.678;6.560;2022-10-22T09:19:05;1.17;;;0.90;;
20090;SDS011;10205;49.678;6.560;2022-10-22T09:21:50;1.08;;;0.80;;
20090;SDS011;10205;49.678;6.560;2022-10-22T09:24:28;3.53;;;1.35;;
20090;SDS011;10205;49.678;6.560;2022-10-22T09:27:06;1.23;;;0.80;;
20090;SDS011;10205;49.678;6.560;2022-10-22T09:29:38;0.95;;;0.80;;
20090;SDS011;10205;49.678;6.560;2022-10-22T09:32:06;4.85;;;1.23;;
20090;SDS011;10205;49.678;6.560;2022-10-22T09:34:35;2.13;;;1.00;;
20090;SDS011;10205;49.678;6.560;2022-10-22T09:37:03;1.23;;;0.80;;
20090;SDS011;10205;49.678;6.560;2022-10-22T09:39:33;1.08;;;0.80;;
20090;SDS011;10205;49.678;6.560;2022-10-22T09:42:05;2.55;;;1.10;;
20090;SDS011;10205;49.678;6.560;2022-10-22T09:44:33;1.60;;;0.93;;
20090;SDS011;10205;49.678;6.560;2022-10-22T09:47:03;1.98;;;0.80;;
20090;SDS011;10205;49.678;6.560;2022-10-22T09:49:32;0.88;;;0.88;;
20090;SDS011;10205;49.678;6.560;2022-10-22T09:52:01;2.13;;;1.00;;
20090;SDS011;10205;49.678;6.560;2022-10-22T09:54:50;0.90;;;0.77;;
20090;SDS011;10205;49.678;6.560;2022-10-22T09:57:20;2.28;;;0.93;;
20090;SDS011;10205;49.678;6.560;2022-10-22T09:59:49;1.15;;;1.00;;
20090;SDS011;10205;49.678;6.560;2022-10-22T10:02:22;2.63;;;0.88;;
20090;SDS011;10205;49.678;6.560;2022-10-22T10:04:56;3.13;;;0.88;;
20090;SDS011;10205;49.678;6.560;2022-10-22T10:07:29;1.20;;;0.73;;
20090;SDS011;10205;49.678;6.560;2022-10-22T10:09:59;1.10;;;0.93;;
20090;SDS011;10205;49.678;6.560;2022-10-22T10:12:30;2.45;;;0.93;;
20090;SDS011;10205;49.678;6.560;2022-10-22T10:15:10;2.65;;;0.90;;
20090;SDS011;10205;49.678;6.560;2022-10-22T10:17:50;1.92;;;1.02;;
20090;SDS011;10205;49.678;6.560;2022-10-22T10:20:30;7.35;;;0.95;;
20090;SDS011;10205;49.678;6.560;2022-10-22T10:23:08;4.65;;;1.23;;
20090;SDS011;10205;49.678;6.560;2022-10-22T10:25:47;3.47;;;1.13;;
20090;SDS011;10205;49.678;6.560;2022-10-22T10:28:32;3.50;;;1.00;;
20090;SDS011;10205;49.678;6.560;2022-10-22T10:31:27;3.92;;;1.00;;
20090;SDS011;10205;49.678;6.560;2022-10-22T10:34:12;3.22;;;1.10;;
20090;SDS011;10205;49.678;6.560;2022-10-22T10:36:57;3.17;;;1.10;;
20090;SDS011;10205;49.678;6.560;2022-10-22T10:39:43;2.72;;;1.00;;
20090;SDS011;10205;49.678;6.560;2022-10-22T10:42:29;2.72;;;1.10;;
20090;SDS011;10205;49.678;6.560;2022-10-22T10:45:07;4.95;;;1.33;;
20090;SDS011;10205;49.678;6.560;2022-10-22T10:47:52;3.25;;;1.50;;
20090;SDS011;10205;49.678;6.560;2022-10-22T10:50:54;5.85;;;1.77;;
20090;SDS011;10205;49.678;6.560;2022-10-22T10:56:32;4.22;;;1.13;;
20090;SDS011;10205;49.678;6.560;2022-10-22T10:59:12;3.00;;;1.23;;
20090;SDS011;10205;49.678;6.560;2022-10-22T11:01:56;2.10;;;1.27;;
20090;SDS011;10205;49.678;6.560;2022-10-22T11:04:44;5.82;;;1.05;;
20090;SDS011;10205;49.678;6.560;2022-10-22T11:07:27;1.63;;;1.00;;
20090;SDS011;10205;49.678;6.560;2022-10-22T11:10:08;1.80;;;1.00;;
20090;SDS011;10205;49.678;6.560;2022-10-22T11:12:49;2.80;;;1.10;;
20090;SDS011;10205;49.678;6.560;2022-10-22T11:15:25;2.10;;;0.75;;
20090;SDS011;10205;49.678;6.560;2022-10-22T11:18:00;3.53;;;1.42;;
20090;SDS011;10205;49.678;6.560;2022-10-22T11:20:43;3.30;;;1.00;;
20090;SDS011;10205;49.678;6.560;2022-10-22T11:23:32;7.75;;;1.17;;
20090;SDS011;10205;49.678;6.560;2022-10-22T11:26:09;2.38;;;1.00;;
20090;SDS011;10205;49.678;6.560;2022-10-22T11:28:52;1.77;;;0.90;;
20090;SDS011;10205;49.678;6.560;2022-10-22T11:31:23;3.22;;;1.10;;
20090;SDS011;10205;49.678;6.560;2022-10-22T11:33:51;2.75;;;0.90;;
20090;SDS011;10205;49.678;6.560;2022-10-22T11:36:27;3.88;;;1.55;;
20090;SDS011;10205;49.678;6.560;2022-10-22T11:38:57;3.40;;;1.10;;
20090;SDS011;10205;49.678;6.560;2022-10-22T11:41:27;1.98;;;1.02;;
20090;SDS011;10205;49.678;6.560;2022-10-22T11:43:58;3.35;;;1.20;;
20090;SDS011;10205;49.678;6.560;2022-10-22T11:46:42;3.63;;;1.25;;
20090;SDS011;10205;49.678;6.560;2022-10-22T11:49:22;3.95;;;1.10;;
20090;SDS011;10205;49.678;6.560;2022-10-22T11:52:04;2.75;;;1.10;;
20090;SDS011;10205;49.678;6.560;2022-10-22T11:54:49;2.88;;;1.00;;
20090;SDS011;10205;49.678;6.560;2022-10-22T11:57:27;1.77;;;0.95;;
20090;SDS011;10205;49.678;6.560;2022-10-22T12:00:05;3.60;;;1.00;;
20090;SDS011;10205;49.678;6.560;2022-10-22T12:03:14;3.17;;;1.05;;
20090;SDS011;10205;49.678;6.560;2022-10-22T12:06:01;2.92;;;0.88;;
20090;SDS011;10205;49.678;6.560;2022-10-22T12:08:43;2.88;;;1.40;;
20090;SDS011;10205;49.678;6.560;2022-10-22T12:11:19;3.75;;;1.08;;
20090;SDS011;10205;49.678;6.560;2022-10-22T12:13:54;3.28;;;1.33;;
20090;SDS011;10205;49.678;6.560;2022-10-22T12:16:37;6.82;;;1.45;;
20090;SDS011;10205;49.678;6.560;2022-10-22T12:19:12;1.70;;;0.88;;
20090;SDS011;10205;49.678;6.560;2022-10-22T12:21:44;6.45;;;1.50;;
20090;SDS011;10205;49.678;6.560;2022-10-22T12:24:16;6.38;;;1.80;;
20090;SDS011;10205;49.678;6.560;2022-10-22T12:26:47;11.88;;;2.05;;
20090;SDS011;10205;49.678;6.560;2022-10-22T12:29:19;7.70;;;1.48;;
20090;SDS011;10205;49.678;6.560;2022-10-22T12:31:50;4.82;;;1.60;;
20090;SDS011;10205;49.678;6.560;2022-10-22T12:34:20;5.63;;;1.27;;
20090;SDS011;10205;49.678;6.560;2022-10-22T12:36:53;3.42;;;1.20;;
20090;SDS011;10205;49.678;6.560;2022-10-22T12:39:22;2.75;;;1.10;;
20090;SDS011;10205;49.678;6.560;2022-10-22T12:41:52;4.00;;;1.33;;
20090;SDS011;10205;49.678;6.560;2022-10-22T12:44:22;4.15;;;1.52;;
20090;SDS011;10205;49.678;6.560;2022-10-22T12:46:49;4.90;;;1.40;;
20090;SDS011;10205;49.678;6.560;2022-10-22T12:49:18;5.40;;;1.48;;
20090;SDS011;10205;49.678;6.560;2022-10-22T12:51:50;2.80;;;1.27;;
20090;SDS011;10205;49.678;6.560;2022-10-22T12:54:21;2.83;;;1.08;;
20090;SDS011;10205;49.678;6.560;2022-10-22T12:56:52;5.75;;;1.30;;
20090;SDS011;10205;49.678;6.560;2022-10-22T12:59:24;6.07;;;1.40;;
20090;SDS011;10205;49.678;6.560;2022-10-22T13:01:55;5.88;;;1.50;;
20090;SDS011;10205;49.678;6.560;2022-10-22T13:04:31;5.95;;;1.70;;
20090;SDS011;10205;49.678;6.560;2022-10-22T13:07:05;4.70;;;1.40;;
20090;SDS011;10205;49.678;6.560;2022-10-22T13:09:44;5.03;;;1.63;;
20090;SDS011;10205;49.678;6.560;2022-10-22T13:12:23;3.53;;;1.17;;
20090;SDS011;10205;49.678;6.560;2022-10-22T13:14:53;3.83;;;1.35;;
20090;SDS011;10205;49.678;6.560;2022-10-22T13:17:35;4.18;;;1.40;;
20090;SDS011;10205;49.678;6.560;2022-10-22T13:20:14;3.97;;;1.00;;
20090;SDS011;10205;49.678;6.560;2022-10-22T13:22:52;3.00;;;1.10;;
20090;SDS011;10205;49.678;6.560;2022-10-22T13:25:25;4.53;;;1.50;;
20090;SDS011;10205;49.678;6.560;2022-10-22T13:27:54;6.22;;;1.80;;
20090;SDS011;10205;49.678;6.560;2022-10-22T13:30:27;4.90;;;1.20;;
20090;SDS011;10205;49.678;6.560;2022-10-22T13:32:57;4.05;;;1.08;;
20090;SDS011;10205;49.678;6.560;2022-10-22T13:35:28;4.80;;;1.27;;
20090;SDS011;10205;49.678;6.560;2022-10-22T13:37:59;3.35;;;1.33;;
20090;SDS011;10205;49.678;6.560;2022-10-22T13:40:27;3.95;;;1.63;;
20090;SDS011;10205;49.678;6.560;2022-10-22T13:42:55;3.67;;;1.40;;
20090;SDS011;10205;49.678;6.560;2022-10-22T13:45:22;6.60;;;1.60;;
20090;SDS011;10205;49.678;6.560;2022-10-22T13:47:51;3.90;;;1.23;;
20090;SDS011;10205;49.678;6.560;2022-10-22T13:50:21;5.05;;;1.10;;
20090;SDS011;10205;49.678;6.560;2022-10-22T13:52:49;5.20;;;1.60;;
20090;SDS011;10205;49.678;6.560;2022-10-22T13:55:20;6.15;;;1.42;;
20090;SDS011;10205;49.678;6.560;2022-10-22T13:57:50;3.78;;;1.10;;
20090;SDS011;10205;49.678;6.560;2022-10-22T14:00:20;3.13;;;1.15;;
20090;SDS011;10205;49.678;6.560;2022-10-22T14:02:49;3.30;;;1.52;;
20090;SDS011;10205;49.678;6.560;2022-10-22T14:05:22;5.78;;;1.48;;
20090;SDS011;10205;49.678;6.560;2022-10-22T14:07:49;6.13;;;1.67;;
20090;SDS011;10205;49.678;6.560;2022-10-22T14:10:18;2.67;;;1.17;;
20090;SDS011;10205;49.678;6.560;2022-10-22T14:12:48;4.35;;;1.50;;
20090;SDS011;10205;49.678;6.560;2022-10-22T14:15:17;3.97;;;1.50;;
20090;SDS011;10205;49.678;6.560;2022-10-22T14:17:50;3.35;;;1.10;;
20090;SDS011;10205;49.678;6.560;2022-10-22T14:20:23;3.88;;;1.13;;
20090;SDS011;10205;49.678;6.560;2022-10-22T14:22:54;3.72;;;1.10;;
20090;SDS011;10205;49.678;6.560;2022-10-22T14:25:27;6.05;;;1.45;;
20090;SDS011;10205;49.678;6.560;2022-10-22T14:27:56;3.33;;;1.13;;
20090;SDS011;10205;49.678;6.560;2022-10-22T14:30:24;5.95;;;1.50;;
20090;SDS011;10205;49.678;6.560;2022-10-22T14:32:57;4.78;;;1.20;;
20090;SDS011;10205;49.678;6.560;2022-10-22T14:35:25;3.40;;;1.30;;
20090;SDS011;10205;49.678;6.560;2022-10-22T14:37:52;6.10;;;1.50;;
20090;SDS011;10205;49.678;6.560;2022-10-22T14:40:22;4.25;;;1.30;;
20090;SDS011;10205;49.678;6.560;2022-10-22T14:42:49;2.95;;;1.13;;
20090;SDS011;10205;49.678;6.560;2022-10-22T14:45:18;4.82;;;1.38;;
20090;SDS011;10205;49.678;6.560;2022-10-22T14:47:48;2.95;;;1.15;;
20090;SDS011;10205;49.678;6.560;2022-10-22T14:50:18;4.43;;;1.10;;
20090;SDS011;10205;49.678;6.560;2022-10-22T14:52:45;2.90;;;1.20;;
20090;SDS011;10205;49.678;6.560;2022-10-22T14:55:13;2.85;;;1.05;;
20090;SDS011;10205;49.678;6.560;2022-10-22T14:57:43;3.78;;;1.30;;
20090;SDS011;10205;49.678;6.560;2022-10-22T15:00:11;5.55;;;1.15;;
20090;SDS011;10205;49.678;6.560;2022-10-22T15:02:42;5.70;;;1.13;;
20090;SDS011;10205;49.678;6.560;2022-10-22T15:05:09;2.28;;;1.20;;
20090;SDS011;10205;49.678;6.560;2022-10-22T15:07:40;2.08;;;1.00;;
20090;SDS011;10205;49.678;6.560;2022-10-22T15:10:08;3.40;;;1.20;;
20090;SDS011;10205;49.678;6.560;2022-10-22T15:12:36;3.60;;;1.55;;
20090;SDS011;10205;49.678;6.560;2022-10-22T15:15:06;2.13;;;0.93;;
20090;SDS011;10205;49.678;6.560;2022-10-22T15:17:35;3.30;;;1.30;;
20090;SDS011;10205;49.678;6.560;2022-10-22T15:20:03;5.63;;;1.50;;
20090;SDS011;10205;49.678;6.560;2022-10-22T15:22:31;2.72;;;1.13;;